Extreme weather reports worldwide

Atmospheric pressure

Low pressure

Station
 
Location
 
Name
 
Wind
Knots
Gust
Knots
Vis
SM
Temp/Dew
C
Baro
inHg
METAR
 
KQBR 3 8 -4/-10 KQBR 261555Z AUTO 16003KT 8SM CLR M04/M11 A3202 RMK AO2 SLP893 WND DATA ESTMD T10401108
NZSP AQ South Pole Station Airport 4 6.21 -30/ 28.71 NZSP 261550Z 03004KT 9999 -SG FEW029 OVC040 M30/ A2871 RMK CLN AIR 04003KT ALL WNDS GRID SDG/HDF
NZWD McMurdo Station, AQ Williams Field 0 6.21 -7/-12 29.01 NZWD 261655Z 00000KT 9999 FEW030 BKN070 BKN120 M07/M12 A2901 RMK SLP825 SDG/HDG
NZCM 0 6.21 -1/-8 29.01 NZCM 261655Z AUTO 00000KT 9999 SCT130 M01/M09 A2901 RMK AO2 SLP826 T10141086 $
YGX CYGX Gillam, CA Gillam Airport 11 13 -15/-18 29.15 CYGX 261600Z 31011KT 13SM -SN OVC075 M15/M18 A2915 RMK AS8 SLP891

Station
 
Location
 
Name
 
Wind
Knots
Gust
Knots
Vis
SM
Temp/Dew
C
Baro
inHg
METAR
 
YYQ CYYQ Churchill, CA Churchill Airport 28 34 0.75 -17/-20 29.18 CYYQ 261600Z 35028G34KT 3/4SM R33/3500VP6000FT/U -SN BLSN BKN029 M17/M20 A2918 RMK BLSN3SC4 SLP888
YER CYER Fort Severn, CA Fort Severn Airport 14 24 0.75 -17/-19 29.18 CYER 261600Z AUTO 21014G24KT 3/4SM -SN M17/M19 A2918 RMK CLD MISG SLP887
SYA PASY Shemya, US Eareckson Air Station 41 53 7 1/1 29.18 PASY 261558Z 10041G53KT 7SM -RASN OVC012 02/01 A2918 RMK AO2A SLP884 ALSTG/SLP ESTMD WND DATA ESTMD T00170014 RVRNO PNO FZRANO $
YIV CYIV Island Lake, CA Island Lake Airport 9 1 -15/-17 29.19 CYIV 261653Z AUTO 25009KT 1SM -SN VV016 M15/M17 A2919 RMK SLP911
ZSJ CZSJ Sandy Lake, CA Sandy Lake Airport 9 15 0.75 -15/-17 29.21 CZSJ 261600Z AUTO 22009G15KT 190V270 3/4SM -SN VV015 M15/M17 A2921 RMK SLP927
MSA CZMD Muskrat Dam, CA Muskrat Dam Airport 16 22 0.75 -16/-19 29.21 CZMD 261600Z AUTO 22016G22KT 3/4SM -SN VV017 M16/M19 A2921 RMK SLP926
CWVD 11 16 -21/-24 29.23 CWVD 261600Z AUTO 12011G16KT 100V160 ////SM OVC003 M21/M24 A2923
CWUP 23 / 29.23 CWUP 261600Z AUTO 27023KT ////SM OVC003 M23/// A2923
YTL CYTL Big Trout Lake, CA Big Trout Lake Airport 14 19 1 -17/-19 29.25 CYTL 261600Z AUTO 22014G19KT 1SM -SN OVC023 M17/M19 A2925 RMK SLP933
YBV CYBV Berens River, CA Berens River Airport 8 2 -12/-14 29.25 CYBV 261600Z 18008KT 2SM -SN DRSN OVC012 M12/M14 A2925 RMK SN4SC4 SLP929
YNE CYNE Norway House, CA Norway House Airport 11 17 6 -11/-13 29.26 CYNE 261640Z AUTO 33011G17KT 6SM -SN SCT015 OVC030 M11/M13 A2926 RMK SLP931
YTH CYTH Thompson, CA Thompson Airport 13 3 -13/-16 29.26 CYTH 261630Z 33013KT 3SM -SN DRSN OVC022 M13/M16 A2926 RMK SC8 PRESRR SLP935
ENNE 8 6.21 5/2 29.26 ENNE 261650Z 31008KT 9999 BKN020 05/02 Q0991 W///S6
FAE EKVG Vagar, FO Vagar Airport 7 25 6.21 4/2 29.26 EKVG 261650Z AUTO VRB07G25KT 9999 -RA OVC017/// 04/02 Q0991 RMK OVC028/// WIND SKEID 07017G29KT
ENUN 2 6.21 5/1 29.26 ENUN 261620Z 02002KT 9999 FEW055 BKN074 05/01 Q0991 W06/S7
LYR ENSB Longyearbyen, NO Svalbard Airport, Longyear 15 6.21 -11/-18 29.26 ENSB 261620Z 33015KT 9999 SCT035 M11/M18 Q0991 RMK WIND 1400FT 34015KT
ENUG 10 -1/-9 29.29 ENUG 261650Z AUTO 31010KT 230V020 9999NDV OVC053/// M01/M09 Q0992 W///S5
RET ENRS NO Røst Airport 4 6.21 3/2 29.29 ENRS 261650Z 24004KT 9999 VCSH FEW012 SCT020 BKN030 03/02 Q0992
LKN ENLK Leknes, NO Leknes Airport 3 6.21 1/1 29.29 ENLK 261650Z 11003KT 080V150 9999 8000S VCSH FEW005 SCT007 BKN015 01/01 Q0992
BJF ENBS Båtsfjord, NO Båtsfjord Airport 19 6.21 -7/-12 29.29 ENBS 261650Z 24019KT CAVOK M07/M12 Q0992
YDN CYDN Dauphin, CA Dauphin Barker Airport 21 26 9 0/-3 29.29 CYDN 261600Z AUTO 27021G26KT 9SM SCT055 SCT078 SCT093 M00/M03 A2929 RMK SLP942
YPO CYPO Peawanuck, CA Peawanuck Airport 20 29 4 -20/-25 29.30 CYPO 261653Z AUTO 20020G29KT 4SM -SN SCT071 BKN094 OVC110 M20/M25 A2930 RMK SLP934
HMV ESUT Hemavan, SE Hemavan Airport 6 6.21 -5/-5 29.32 ESUT 261650Z AUTO 13006KT 9999 OVC024/// M05/M05 Q0993
KRN ESNQ Kiruna, SE Kiruna Airport 0 0.12 -10/-11 29.32 ESNQ 261650Z 00000KT 0200 R03/0800N R21/0900N FZFG VV002 M10/M11 Q0993
SSJ ENST Alstahaug, NO Sandnessjøen Airport (Stokka) 11 6.21 3/1 29.32 ENST 261650Z 17011KT 9999 -SHRA FEW008 SCT011 BKN028 03/01 Q0993 RMK WIND 300FT 17014KT
SKN ENSK Hadsel, NO Stokmarknes Skagen Airport 4 6.21 -1/-5 29.32 ENSK 261650Z 06004KT 9999 FEW030 M01/M05 Q0993
SVJ ENSH Svolvær, NO Svolvær Helle Airport 7 6.21 2/-2 29.32 ENSH 261650Z 07007KT 030V110 9999 BKN017 02/M02 Q0993 RMK WIND 150FT 08013KT
MEH ENMH Mehamn, NO Mehamn Airport 18 6.21 -3/-5 29.32 ENMH 261650Z 23018KT 9999 FEW015 SCT023 BKN060 M03/M05 Q0993
HFT ENHF Hammerfest, NO Hammerfest Airport 8 6.21 -2/-5 29.32 ENHF 261650Z 21008KT 9999 VCSH FEW012 SCT020 M02/M05 Q0993 RMK WIND 1254FT 23015KT
ENHE 17 6.21 5/1 29.32 ENHE 261650Z 27017KT 9999 FEW020 05/01 Q0993 W///S7
BVG ENBV Berlevåg, NO Berlevåg Airport 18 6.21 -5/-9 29.32 ENBV 261650Z 22018KT CAVOK M05/M09 Q0993
BOO ENBO Bodø, NO Bodø Airport 12 6.21 0/-1 29.32 ENBO 261650Z 10012KT 9999 VCSH FEW029 SCT042 00/M01 Q0993
ANX ENAN Andenes, NO Andøya Airport 8 6.21 -1/-3 29.32 ENAN 261650Z 18008KT 9999 SCT036 M01/M03 Q0993
HVG ENHV Honningsvåg, NO Valan Airport 15 6.21 -2/-4 29.32 ENHV 261620Z 21015KT 9999 -SN FEW021 SCT046 BKN061 M02/M04 Q0993
TNM SCRM Isla Rey Jorge, AQ Teniente Rodolfo Marsh Martin Base 14 6.21 / 29.32 SCRM 261600Z 26014KT 9999 BKN016 02/// Q0993 NOSIG
YEK CYEK Arviat, CA Arviat Airport 23 29 0.13 -21/-23 29.33 CYEK 261600Z 36023G29KT 1/8SM +SN BLSN VV009 M21/M23 A2933 RMK BLSN8 SLP936
AJR ESNX Arvidsjaur, SE Arvidsjaur Airport 2 6.21 / 29.35 ESNX 261650Z AUTO VRB02KT 9999 OVC006/// M09/// Q0994
GEV ESNG Gällivare, SE Gällivare Airport 3 6.21 -8/-9 29.35 ESNG 261650Z 15003KT 9999 OVC012 M08/M09 Q0994
VAW ENSS Vardø, NO Vardø Airport, Svartnes 23 6.21 -7/-10 29.35 ENSS 261650Z 24023KT CAVOK M07/M10 Q0994 RMK WIND 500FT 25028KT
MQN ENRA Mo i Rana, NO Mo i Rana Airport, Røssvoll 1 6.21 -1/-2 29.35 ENRA 261650Z VRB01KT 9999 VCSH FEW002 BKN035 M01/M02 Q0994
MJF ENMS NO Mosjøen Airport (Kjærstad) 4 6.21 1/0 29.35 ENMS 261650Z 16004KT 9999 VCSH FEW015 SCT028 BKN040 01/00 Q0994 RMK WIND 412FT 09002KT
HAA ENHK Hasvik, NO Hasvik Airport 6 3.73 -2/-3 29.35 ENHK 261650Z 27006KT 6000 -SHSN FEW007 SCT012 BKN018 M02/M03 Q0994
EVE ENEV Evenes, NO Harstad/Narvik Airport, Evenes 1 6.21 -8/-9 29.35 ENEV 261650Z VRB01KT CAVOK M08/M09 Q0994 RMK WIND 1400FT 16010KT
BNN ENBN Brønnøy, NO Brønnøysund Airport 14 6.21 4/2 29.35 ENBN 261620Z 19014KT 9999 -SHRA FEW005 BKN010 04/02 Q0994
YRL CYRL Red Lake, CA Red Lake Airport 13 19 4 -15/-18 29.36 CYRL 261600Z 19013G19KT 4SM -SHSN DRSN BKN011 OVC040 M15/M18 A2936 RMK SN1SC6SC1 CIG RAG CVCTV CLD EMBD PRESFR SLP985

High pressure

Station
 
Location
 
Name
 
Wind
Knots
Gust
Knots
Vis
SM
Temp/Dew
C
Baro
inHg
METAR
 
KQDG 6 6.21 0/-4 31.03 KQDG 261556Z AUTO 29006KT 9999 OVC070 01/M04 A3103 RMK AO2 PRESRR SLP510 T00071040 PNO $
LPB SLLP La Paz / El Alto, BO El Alto International Airport 6 6.21 13/4 30.62 SLLP 261600Z 14006KT 9999 SCT017 FEW020CB BKN200 13/04 Q1037
POI SLPO Potosí, BO Capitan Nicolas Rojas Airport 8 6.21 13/7 30.62 SLPO 261600Z 06008KT 9999 SCT017 FEW030CB SCT200 13/07 Q1037
ANS SPHY Andahuaylas, PE Andahuaylas Airport 5 3.73 10/8 30.59 SPHY 261600Z 33005KT 6000 BCFG BKN015 BKN050 10/08 Q1036 RMK PP000
KEHR Henderson, US Henderson City County Airport 3 10 -9/-16 30.58 KEHR 261556Z AUTO 01003KT 10SM CLR M09/M17 A3058 RMK AO2 SLP362 T10941167 FZRANO

Station
 
Location
 
Name
 
Wind
Knots
Gust
Knots
Vis
SM
Temp/Dew
C
Baro
inHg
METAR
 
KMVN Mount Vernon, US Mt. Vernon Outland Airport 0 10 -10/-17 30.58 KMVN 261556Z AUTO 00000KT 10SM CLR M11/M17 A3058 RMK AO2 SLP367 T11061172 FZRANO
HSB KHSB Harrisburg, US Harrisburg-Raleigh Airport 0 10 -9/-20 30.58 KHSB 261635Z AUTO 00000KT 10SM CLR M09/M20 A3058 RMK AO2 T10911204
KRSV Robinson, US Robinson Municipal Airport 3 10 -12/-20 30.58 KRSV 261635Z AUTO 36003KT 10SM CLR M12/M20 A3058 RMK AO2 T11251201
MAW KMAW Malden, US Malden Regional Airport 7 10 -4/-15 30.58 KMAW 261655Z AUTO 05007KT 10SM CLR M04/M15 A3058 RMK AO2
SIK KSIK Sikeston, US Sikeston Memorial Municipal Airport 0 10 -5/-15 30.58 KSIK 261655Z AUTO 00000KT 10SM CLR M05/M15 A3058 RMK AO2 TSNO
ARG KARG Walnut Ridge, US Walnut Ridge Regional Airport 10 10 -5/-12 30.57 KARG 261556Z AUTO 06010KT 10SM CLR M05/M13 A3057 RMK AO2 SLP357 T10501128 FZRANO
OWB KOWB Owensboro, US Owensboro Daviess County Airport 0 10 -10/-17 30.57 KOWB 261556Z 00000KT 10SM CLR M10/M17 A3057 RMK AO2 SLP360 T11001172
SHH PASH Shishmaref, US Shishmaref Airport 0 10 -33/-36 30.57 PASH 261556Z AUTO 00000KT 10SM CLR M34/M37 A3057 RMK AO2 SLP354 T13391367 FZRANO
K1H2 0 10 -11/-20 30.57 K1H2 261635Z AUTO 00000KT 10SM CLR M11/M20 A3057 RMK AO2 T11101201
KAJG Mount Carmel, US Mount Carmel Municipal Airport 0 10 -9/-18 30.57 KAJG 261635Z AUTO 00000KT 10SM CLR M09/M18 A3057 RMK AO2 T10951184
CIR KCIR Cairo, US Cairo Regional Airport 7 10 -7/-17 30.57 KCIR 261635Z AUTO 10007KT 10SM CLR M07/M17 A3057 RMK AO2 T10711172
KFOA Flora, US Flora Municipal Airport 3 10 -11/-18 30.57 KFOA 261635Z AUTO 32003KT 10SM CLR M11/M18 A3057 RMK AO2
KM30 0 10 -7/-16 30.57 KM30 261635Z AUTO 00000KT 10SM CLR M08/M17 A3057 RMK AO2 T10761168
KOLY Olney-Noble, US Olney Noble Airport 3 10 -10/-19 30.57 KOLY 261635Z AUTO 28003KT 10SM CLR M10/M19 A3057 RMK AO2 T11051191
KCUL Carmi, US Carmi Municipal Airport 0 10 -10/-17 30.57 KCUL 261638Z AUTO 00000KT 10SM CLR M10/M17 A3057 RMK AO2
CGI KCGI Cape Girardeau, US Cape Girardeau Regional Airport 10 -6/-17 30.57 KCGI 261653Z 10SM CLR M06/M17 A3057 RMK AO2 SLP356 T10611172
KPCD 0 10 -8/-17 30.57 KPCD 261655Z AUTO 00000KT 10SM CLR M08/M17 A3057 RMK AO2 T10831172
KTWT Sturgis, US Sturgis Municipal Airport 0 10 -6/-16 30.57 KTWT 261655Z AUTO 00000KT 10SM CLR M06/M16 A3057 RMK AO2
BLV KBLV Belleville, US Scott AFB/Midamerica Airport 0 10 -10/-19 30.56 KBLV 261556Z 00000KT 10SM CLR M11/M19 A3056 RMK AO2A SLP361 T11081190 $
HNB KHNB Huntingburg, US Huntingburg Airport 3 10 -10/-17 30.56 KHNB 261556Z AUTO VRB03KT 10SM CLR M11/M17 A3056 RMK AO2 SLP357 T11061172 FZRANO
KM19 12 10 -4/-11 30.56 KM19 261556Z AUTO 04012KT 10SM CLR M04/M12 A3056 RMK AO2 SLP349 T10441117
BKC PABL Buckland, US Buckland Airport 3 3 -32/-35 30.56 PABL 261556Z AUTO 31003KT 3SM -SN CLR M33/M36 A3056 RMK AO2 SNB02 SLP352 P0000 T13281356 FZRANO
WTK PAWN Noatak, US Noatak Airport 5 10 -36/ 30.56 PAWN 261556Z AUTO 35005KT 10SM CLR M37/ A3056 RMK AO2 SLP367 T1367 FZRANO
JUL SPJL Juliaca, PE Inca Manco Capac International Airport 4 6.21 12/5 30.56 SPJL 261600Z 06004KT 9999 BKN020 BKN080 12/05 Q1035 RMK PP000
ANE LFJR Angers/Marcé, FR Angers-Loire Airport 5 2.61 1/0 30.56 LFJR 261630Z AUTO 11005KT 4200 BR OVC006 01/00 Q1035
LFOZ Orléans - Saint-Denis-de-l'Hôtel, FR Aérodrome de Saint-Denis-de-l'Hôtel 4 2.49 -1/-1 30.56 LFOZ 261630Z AUTO 10004KT 070V130 4000 BR OVC005 M01/M01 Q1035
LFQB Troyes/Barberey, FR Troyes-Barberey Airport 0 4.35 -2/-2 30.56 LFQB 261630Z AUTO 00000KT 7000 OVC005 M02/M02 Q1035
LFRL Lanvéoc/Poulmic, FR Lanvéoc-Poulmic Air Base 2 3.04 6/3 30.56 LFRL 261630Z AUTO 29002KT 4900 BR BKN038 06/03 Q1035 NOSIG
LME LFRM Le Mans/Arnage, FR Le Mans-Arnage Airport 0 2.98 3/1 30.56 LFRM 261630Z AUTO 00000KT 4800 BR OVC015 03/01 Q1035 BECMG OVC008
RNS LFRN Rennes/Saint-Jacques, FR Rennes-Saint-Jacques Airport 3 3.73 4/1 30.56 LFRN 261630Z AUTO 13003KT 6000 BKN017 OVC022 04/01 Q1035 TEMPO 4000 BR BKN008
LFYR FR Romorantin Pruniers Airfield 4 4.35 -2/-2 30.56 LFYR 261630Z AUTO 04004KT 330V080 7000 OVC004 M02/M02 Q1035
FLW LPFL Santa Cruz das Flores, PT Flores Airport 2 6.21 16/7 30.56 LPFL 261630Z VRB02KT 9999 FEW033 BKN040 16/07 Q1035
K2I0 3 10 -6/-17 30.56 K2I0 261635Z AUTO 09003KT 10SM CLR M06/M17 A3056 RMK AO2 T10651170
K3LF 0 10 -12/-19 30.56 K3LF 261635Z AUTO 00000KT 10SM CLR M12/M19 A3056 RMK AO2 T11251195
KDCY Washington, US Daviess County Airport 0 10 -11/-18 30.56 KDCY 261635Z AUTO 00000KT 10SM CLR M11/M19 A3056 RMK AO2 T11131186
KFWC Fairfield, US Fairfield Municipal Airport 0 10 -10/-17 30.56 KFWC 261635Z AUTO 00000KT 10SM CLR M10/M17 A3056 RMK AO1 T11021173
SAR KSAR Sparta, US Sparta Community Hunter Field 0 10 -10/-18 30.56 KSAR 261635Z AUTO 00000KT 10SM CLR M11/M18 A3056 RMK AO2 T11061180
SLO KSLO Salem, US Salem Leckrone Airport 3 10 -10/-18 30.56 KSLO 261635Z AUTO 03003KT 10SM CLR M10/M18 A3056 RMK AO2 T11031180
ALN KALN Alton/St Louis, US St Louis Regional Airport 0 10 -13/-19 30.56 KALN 261650Z 00000KT 10SM CLR M13/M19 A3056
MDH KMDH Carbondale/Murphysboro, US Southern Illinois Airport 5 10 -8/-17 30.56 KMDH 261652Z 03005KT 10SM CLR M08/M17 A3056 RMK AO2 SLP355 T10831172
CPS KCPS Cahokia/St Louis, US St Louis Downtown Airport 0 10 -9/-18 30.56 KCPS 261653Z 00000KT 10SM CLR M09/M19 A3056 RMK AO2 SLP356 T10941189
LWV KLWV Lawrenceville, US Lawrenceville Vincennes International Airport 3 10 -10/-18 30.56 KLWV 261653Z AUTO 34003KT 10SM CLR M11/M19 A3056 RMK AO2 SLP357 T11061189
POF KPOF Poplar Bluff, US Poplar Bluff Municipal Airport 7 10 -5/-16 30.56 KPOF 261653Z AUTO 04007KT 10SM CLR M06/M17 A3056 RMK AO2 SLP358 T10561167
EVV KEVV Evansville, US Evansville Regional Airport 0 10 -8/-18 30.56 KEVV 261654Z 00000KT 10SM CLR M08/M18 A3056 RMK AO2 SLP357 T10831183 $
K4M9 9 10 -5/-15 30.56 K4M9 261655Z AUTO 03009KT 10SM CLR M05/M15 A3056 RMK AO2 PWINO